createdAt,value
2023-01-21T00:01:56.976Z,101667.00
2023-01-21T00:04:24.809Z,101693.00
2023-01-21T00:06:52.784Z,101639.00
2023-01-21T00:09:22.073Z,101715.00
2023-01-21T00:11:50.005Z,101686.00
2023-01-21T00:14:19.538Z,101722.00
2023-01-21T00:16:47.645Z,101721.00
2023-01-21T00:19:15.462Z,101727.00
2023-01-21T00:21:46.710Z,101731.00
2023-01-21T00:24:14.579Z,101713.00
2023-01-21T00:26:43.785Z,101731.00
2023-01-21T00:29:12.752Z,101748.00
2023-01-21T00:31:40.851Z,101752.00
2023-01-21T00:34:08.801Z,101752.00
2023-01-21T00:36:36.592Z,101752.00
2023-01-21T00:39:04.577Z,101730.00
2023-01-21T00:41:32.382Z,101755.00
2023-01-21T00:44:01.604Z,101758.00
2023-01-21T00:46:29.582Z,101739.00
2023-01-21T00:48:57.524Z,101764.00
2023-01-21T00:51:25.442Z,101722.00
2023-01-21T00:53:54.562Z,101753.00
2023-01-21T00:56:22.382Z,101752.00
2023-01-21T00:58:50.412Z,101756.00
2023-01-21T01:01:21.859Z,101771.00
2023-01-21T01:03:50.863Z,101776.00
2023-01-21T01:06:20.708Z,101763.00
2023-01-21T01:08:49.862Z,101769.00
2023-01-21T01:11:21.398Z,101773.00
2023-01-21T01:13:49.276Z,101777.00
2023-01-21T01:16:17.343Z,101765.00
2023-01-21T01:18:46.810Z,101789.00
2023-01-21T01:21:17.035Z,101800.00
2023-01-21T01:23:45.076Z,101811.00
2023-01-21T01:26:26.176Z,101807.00
2023-01-21T01:29:07.079Z,101815.00
2023-01-21T01:31:35.102Z,101820.00
2023-01-21T01:34:04.410Z,101821.00
2023-01-21T01:36:32.221Z,101814.00
2023-01-21T01:39:00.248Z,101793.00
2023-01-21T01:41:30.283Z,101836.00
2023-01-21T01:44:00.815Z,101798.00
2023-01-21T01:46:30.714Z,101827.00
2023-01-21T01:49:05.472Z,101795.00
2023-01-21T01:51:43.367Z,101859.00
2023-01-21T01:54:14.687Z,101841.00
2023-01-21T01:56:46.722Z,101860.00
2023-01-21T01:59:15.177Z,101869.00
2023-01-21T02:01:43.419Z,101860.00
2023-01-21T02:04:17.287Z,101878.00
2023-01-21T02:06:46.199Z,101875.00
2023-01-21T02:09:14.094Z,101870.00
2023-01-21T02:11:42.351Z,101874.00
2023-01-21T02:14:10.991Z,101876.00
2023-01-21T02:17:07.284Z,101879.00
2023-01-21T02:20:23.304Z,101900.00
2023-01-21T02:23:01.227Z,101875.00
2023-01-21T02:25:56.635Z,101876.00
2023-01-21T02:29:09.671Z,101912.00
2023-01-21T02:32:07.868Z,101915.00
2023-01-21T02:34:42.520Z,101906.00
2023-01-21T02:37:13.727Z,101896.00
2023-01-21T02:40:04.188Z,101902.00
2023-01-21T02:42:42.400Z,101918.00
2023-01-21T02:45:21.079Z,101906.00
2023-01-21T02:47:54.553Z,101926.00
2023-01-21T02:50:27.348Z,101887.00
2023-01-21T02:52:58.997Z,101931.00
2023-01-21T02:55:30.037Z,101926.00
2023-01-21T02:58:01.251Z,101921.00
2023-01-21T03:00:34.948Z,101914.00
2023-01-21T03:03:23.297Z,101945.00
2023-01-21T03:06:37.454Z,101937.00
2023-01-21T03:09:14.691Z,101883.00
2023-01-21T03:11:46.620Z,101925.00
2023-01-21T03:14:39.046Z,101941.00
2023-01-21T03:17:11.634Z,101941.00
2023-01-21T03:19:44.154Z,101945.00
2023-01-21T03:22:16.958Z,101951.00
2023-01-21T03:24:48.533Z,101942.00
2023-01-21T03:27:20.072Z,101954.00
2023-01-21T03:29:49.374Z,101937.00
2023-01-21T03:32:22.941Z,101899.00
2023-01-21T03:34:54.100Z,101957.00
2023-01-21T03:37:29.673Z,101931.00
2023-01-21T03:40:11.930Z,101935.00
2023-01-21T03:42:40.388Z,101956.00
2023-01-21T03:45:10.757Z,101938.00
2023-01-21T03:47:40.207Z,101899.00
2023-01-21T03:50:12.323Z,101940.00
2023-01-21T03:52:43.768Z,101916.00
2023-01-21T03:55:14.173Z,101915.00
2023-01-21T03:57:45.322Z,101954.00
2023-01-21T04:00:16.849Z,101940.00
2023-01-21T04:02:45.496Z,101941.00
2023-01-21T04:05:14.315Z,101940.00
2023-01-21T04:07:43.720Z,101928.00
2023-01-21T04:10:12.776Z,101940.00
2023-01-21T04:12:41.965Z,101932.00
2023-01-21T04:15:13.745Z,101947.00
2023-01-21T04:17:41.979Z,101956.00
2023-01-21T04:20:11.466Z,101946.00
2023-01-21T04:22:42.202Z,101938.00
2023-01-21T04:25:12.235Z,101974.00
2023-01-21T04:27:48.014Z,101926.00
2023-01-21T04:30:20.924Z,101913.00
2023-01-21T04:32:51.899Z,101913.00
2023-01-21T04:35:24.372Z,101962.00
2023-01-21T04:37:56.898Z,101932.00
2023-01-21T04:40:30.646Z,101956.00
2023-01-21T04:43:01.605Z,101959.00
2023-01-21T04:45:41.066Z,101963.00
2023-01-21T04:48:21.684Z,101942.00
2023-01-21T04:50:50.425Z,101946.00
2023-01-21T04:53:19.259Z,101993.00
2023-01-21T04:55:53.149Z,101990.00
2023-01-21T04:58:22.076Z,101971.00
2023-01-21T05:00:50.543Z,101947.00
2023-01-21T05:03:22.041Z,101987.00
2023-01-21T05:05:55.495Z,101943.00
2023-01-21T05:08:28.872Z,102005.00
2023-01-21T05:11:01.761Z,101998.00
2023-01-21T05:13:33.290Z,101957.00
2023-01-21T05:16:10.197Z,101974.00
2023-01-21T05:18:41.986Z,101982.00
2023-01-21T05:21:10.535Z,101983.00
2023-01-21T05:23:38.534Z,102005.00
2023-01-21T05:26:09.574Z,101993.00
2023-01-21T05:28:40.191Z,102012.00
2023-01-21T05:31:11.656Z,102005.00
2023-01-21T05:33:39.938Z,102014.00
2023-01-21T05:36:09.587Z,102025.00
2023-01-21T05:38:41.428Z,102012.00
2023-01-21T05:41:11.411Z,102013.00
2023-01-21T05:43:39.592Z,102016.00
2023-01-21T05:46:10.522Z,102005.00
2023-01-21T05:48:39.132Z,102014.00
2023-01-21T05:51:07.870Z,102018.00
2023-01-21T05:53:39.737Z,102029.00
2023-01-21T05:56:18.819Z,101972.00
2023-01-21T05:58:50.884Z,102003.00
2023-01-21T06:01:23.989Z,102000.00
2023-01-21T06:03:54.545Z,102024.00
2023-01-21T06:06:43.926Z,102020.00
2023-01-21T06:09:23.754Z,102023.00
2023-01-21T06:12:00.680Z,102027.00
2023-01-21T06:14:36.707Z,101983.00
2023-01-21T06:17:07.089Z,102052.00
2023-01-21T06:19:35.762Z,102036.00
2023-01-21T06:22:04.159Z,102025.00
2023-01-21T06:24:32.543Z,102054.00
2023-01-21T06:27:04.478Z,102014.00
2023-01-21T06:29:32.757Z,102076.00
2023-01-21T06:32:05.959Z,102077.00
2023-01-21T06:34:37.391Z,102072.00
2023-01-21T06:37:05.497Z,102042.00
2023-01-21T06:39:36.394Z,102053.00
2023-01-21T06:42:13.497Z,102088.00
2023-01-21T06:44:44.259Z,102085.00
2023-01-21T06:47:13.163Z,102094.00
2023-01-21T06:49:48.984Z,102121.00
2023-01-21T06:52:35.033Z,102125.00
2023-01-21T06:55:07.104Z,102130.00
2023-01-21T06:57:37.815Z,102092.00
2023-01-21T07:00:10.684Z,102125.00
2023-01-21T07:02:41.322Z,102143.00
2023-01-21T07:05:18.345Z,102142.00
2023-01-21T07:07:47.354Z,102117.00
2023-01-21T07:10:28.684Z,102137.00
2023-01-21T07:13:16.828Z,102138.00
2023-01-21T07:16:04.081Z,102106.00
2023-01-21T07:21:34.309Z,102113.00
2023-01-21T07:24:13.719Z,102147.00
2023-01-21T07:26:45.649Z,102108.00
2023-01-21T07:29:21.685Z,102153.00
2023-01-21T07:31:52.777Z,102169.00
2023-01-21T07:34:27.260Z,102160.00
2023-01-21T07:37:09.507Z,102154.00
2023-01-21T07:39:47.605Z,102142.00
2023-01-21T07:42:20.824Z,102137.00
2023-01-21T07:45:05.447Z,102126.00
2023-01-21T07:47:42.021Z,102166.00
2023-01-21T07:50:16.383Z,102163.00
2023-01-21T07:59:04.475Z,102167.00
2023-01-21T08:01:33.541Z,102178.00
2023-01-21T08:04:01.722Z,102182.00
2023-01-21T08:06:29.397Z,102187.00
2023-01-21T08:08:57.065Z,102185.00
2023-01-21T08:11:24.760Z,102189.00
2023-01-21T08:13:52.437Z,102192.00
2023-01-21T08:16:20.170Z,102191.00
2023-01-21T08:18:49.282Z,102193.00
2023-01-21T08:21:16.956Z,102182.00
2023-01-21T08:23:44.647Z,102191.00
2023-01-21T08:26:12.327Z,102196.00
2023-01-21T08:28:39.999Z,102207.00
2023-01-21T08:31:10.197Z,102201.00
2023-01-21T08:33:38.617Z,102215.00
2023-01-21T08:36:09.564Z,102210.00
2023-01-21T08:38:37.327Z,102207.00
2023-01-21T08:41:05.304Z,102205.00
2023-01-21T08:43:33.066Z,102210.00
2023-01-21T08:46:01.654Z,102222.00
2023-01-21T08:48:30.099Z,102221.00
2023-01-21T08:51:00.053Z,102219.00
2023-01-21T08:53:29.573Z,102223.00
2023-01-21T08:55:59.650Z,102246.00
2023-01-21T08:58:27.387Z,102245.00
2023-01-21T09:00:55.130Z,102240.00
2023-01-21T09:03:22.893Z,102237.00
2023-01-21T09:05:51.712Z,102223.00
2023-01-21T09:08:19.957Z,102237.00
2023-01-21T09:11:04.383Z,102239.00
2023-01-21T09:13:34.776Z,102235.00
2023-01-21T09:16:02.856Z,102245.00
2023-01-21T09:18:30.558Z,102249.00
2023-01-21T09:21:01.698Z,102250.00
2023-01-21T09:23:32.137Z,102235.00
2023-01-21T09:26:05.585Z,102232.00
2023-01-21T09:28:34.638Z,102247.00
2023-01-21T09:31:05.029Z,102244.00
2023-01-21T09:33:34.805Z,102241.00
2023-01-21T09:36:04.856Z,102249.00
2023-01-21T09:38:33.102Z,102246.00
2023-01-21T09:41:19.936Z,102248.00
2023-01-21T09:43:50.639Z,102245.00
2023-01-21T09:46:28.483Z,102248.00
2023-01-21T09:48:57.010Z,102246.00
2023-01-21T09:51:29.955Z,102261.00
2023-01-21T09:53:59.335Z,102253.00
2023-01-21T09:56:36.572Z,102258.00
2023-01-21T09:59:09.811Z,102250.00
2023-01-21T10:01:41.835Z,102269.00
2023-01-21T10:04:30.353Z,102254.00
2023-01-21T10:07:05.075Z,102256.00
2023-01-21T10:09:59.620Z,102245.00
2023-01-21T10:12:48.107Z,102257.00
2023-01-21T10:15:45.200Z,102268.00
2023-01-21T10:18:15.617Z,102260.00
2023-01-21T10:20:50.581Z,102260.00
2023-01-21T10:23:24.625Z,102260.00
2023-01-21T10:25:52.296Z,102264.00
2023-01-21T10:28:23.891Z,102269.00
2023-01-21T10:30:53.915Z,102269.00
2023-01-21T10:33:23.862Z,102258.00
2023-01-21T10:36:29.126Z,102255.00
2023-01-21T10:39:02.863Z,102262.00
2023-01-21T10:41:40.313Z,102256.00
2023-01-21T10:44:17.893Z,102255.00
2023-01-21T10:46:51.845Z,102254.00
2023-01-21T10:49:29.208Z,102256.00
2023-01-21T10:52:03.534Z,102250.00
2023-01-21T10:54:42.938Z,102245.00
2023-01-21T10:57:23.370Z,102254.00
2023-01-21T10:59:53.579Z,102254.00
2023-01-21T11:02:25.694Z,102250.00
2023-01-21T11:04:53.422Z,102245.00
2023-01-21T11:07:23.068Z,102261.00
2023-01-21T11:09:51.052Z,102250.00
2023-01-21T11:12:20.909Z,102255.00
2023-01-21T11:14:51.642Z,102258.00
2023-01-21T11:17:34.942Z,102264.00
2023-01-21T11:20:05.379Z,102263.00
2023-01-21T11:22:33.929Z,102275.00
2023-01-21T11:25:02.199Z,102263.00
2023-01-21T11:27:34.925Z,102274.00
2023-01-21T11:30:03.723Z,102262.00
2023-01-21T11:32:33.681Z,102267.00
2023-01-21T11:35:10.630Z,102273.00
2023-01-21T11:37:39.004Z,102261.00
2023-01-21T11:40:14.154Z,102256.00
2023-01-21T11:42:48.400Z,102257.00
2023-01-21T11:45:28.319Z,102262.00
2023-01-21T11:47:58.563Z,102267.00
2023-01-21T11:50:29.521Z,102259.00
2023-01-21T11:53:11.450Z,102247.00
2023-01-21T11:55:41.361Z,102254.00
2023-01-21T11:58:19.580Z,102257.00
2023-01-21T12:00:49.134Z,102261.00
2023-01-21T12:03:20.988Z,102255.00
2023-01-21T12:05:50.430Z,102251.00
2023-01-21T12:08:23.983Z,102261.00
2023-01-21T12:10:53.576Z,102255.00
2023-01-21T12:13:28.585Z,102248.00
2023-01-21T12:16:22.289Z,102234.00
2023-01-21T12:19:22.726Z,102241.00
2023-01-21T12:22:07.816Z,102232.00
2023-01-21T12:24:50.101Z,102228.00
2023-01-21T12:27:25.426Z,102234.00
2023-01-21T12:30:08.361Z,102235.00
2023-01-21T12:32:40.063Z,102232.00
2023-01-21T12:35:14.821Z,102229.00
2023-01-21T12:37:48.304Z,102230.00
2023-01-21T12:40:19.400Z,102219.00
2023-01-21T12:42:52.850Z,102226.00
2023-01-21T12:45:24.870Z,102225.00
2023-01-21T12:47:57.721Z,102214.00
2023-01-21T12:50:33.098Z,102220.00
2023-01-21T12:53:11.730Z,102185.00
2023-01-21T12:55:56.765Z,102197.00
2023-01-21T12:58:27.474Z,102209.00
2023-01-21T13:00:56.401Z,102200.00
2023-01-21T13:03:30.510Z,102213.00
2023-01-21T13:06:04.181Z,102212.00
2023-01-21T13:08:45.769Z,102198.00
2023-01-21T13:11:19.979Z,102206.00
2023-01-21T13:13:54.114Z,102203.00
2023-01-21T13:16:26.023Z,102205.00
2023-01-21T13:18:55.006Z,102205.00
2023-01-21T13:21:34.483Z,102216.00
2023-01-21T13:24:12.431Z,102200.00
2023-01-21T13:26:47.386Z,102194.00
2023-01-21T13:29:20.983Z,102215.00
2023-01-21T13:31:55.974Z,102209.00
2023-01-21T13:34:32.024Z,102219.00
2023-01-21T13:37:09.376Z,102205.00
2023-01-21T13:39:45.459Z,102202.00
2023-01-21T13:42:33.872Z,102214.00
2023-01-21T13:45:18.679Z,102215.00
2023-01-21T13:48:08.165Z,102223.00
2023-01-21T13:50:47.178Z,102207.00
2023-01-21T13:53:30.977Z,102217.00
2023-01-21T13:56:11.801Z,102211.00
2023-01-21T13:58:43.991Z,102201.00
2023-01-21T14:01:15.632Z,102217.00
2023-01-21T14:03:50.244Z,102225.00
2023-01-21T14:06:25.039Z,102214.00
2023-01-21T14:08:58.555Z,102216.00
2023-01-21T14:11:32.673Z,102224.00
2023-01-21T14:14:17.130Z,102214.00
2023-01-21T14:17:08.614Z,102215.00
2023-01-21T14:20:18.075Z,102215.00
2023-01-21T14:23:12.680Z,102213.00
2023-01-21T14:25:56.878Z,102218.00
2023-01-21T14:28:33.716Z,102212.00
2023-01-21T14:31:06.676Z,102207.00
2023-01-21T14:33:44.246Z,102212.00
2023-01-21T14:36:18.405Z,102215.00
2023-01-21T14:38:57.918Z,102205.00
2023-01-21T14:42:02.418Z,102219.00
2023-01-21T14:44:38.573Z,102210.00
2023-01-21T14:47:23.055Z,102218.00
2023-01-21T14:49:56.278Z,102210.00
2023-01-21T14:52:30.071Z,102215.00
2023-01-21T14:54:58.090Z,102218.00
2023-01-21T14:57:32.447Z,102219.00
2023-01-21T15:00:12.895Z,102212.00
2023-01-21T15:02:43.943Z,102217.00
2023-01-21T15:05:25.383Z,102217.00
2023-01-21T15:08:04.687Z,102219.00
2023-01-21T15:10:36.015Z,102211.00
2023-01-21T15:13:18.811Z,102223.00
2023-01-21T15:16:06.708Z,102206.00
2023-01-21T15:18:39.934Z,102206.00
2023-01-21T15:21:34.567Z,102213.00
2023-01-21T15:24:30.563Z,102212.00
2023-01-21T15:27:15.219Z,102211.00
2023-01-21T15:29:45.752Z,102202.00
2023-01-21T15:32:22.000Z,102210.00
2023-01-21T15:34:53.090Z,102215.00
2023-01-21T15:37:23.265Z,102200.00
2023-01-21T15:39:52.238Z,102209.00
2023-01-21T15:42:28.032Z,102211.00
2023-01-21T15:45:13.493Z,102214.00
2023-01-21T15:48:02.017Z,102209.00
2023-01-21T15:50:35.882Z,102208.00
2023-01-21T15:53:40.511Z,102203.00
2023-01-21T15:56:32.446Z,102196.00
2023-01-21T15:59:12.538Z,102200.00
2023-01-21T16:01:42.908Z,102204.00
2023-01-21T16:04:26.079Z,102199.00
2023-01-21T16:07:09.192Z,102216.00
2023-01-21T16:09:43.895Z,102205.00
2023-01-21T16:12:21.311Z,102202.00
2023-01-21T16:15:01.066Z,102205.00
2023-01-21T16:17:44.309Z,102210.00
2023-01-21T16:20:16.467Z,102211.00
2023-01-21T16:22:47.304Z,102202.00
2023-01-21T16:25:19.679Z,102212.00
2023-01-21T16:27:49.175Z,102207.00
2023-01-21T16:30:20.484Z,102212.00
2023-01-21T16:33:05.466Z,102210.00
2023-01-21T16:35:42.981Z,102200.00
2023-01-21T16:38:15.406Z,102206.00
2023-01-21T16:40:43.153Z,102207.00
2023-01-21T16:43:22.714Z,102218.00
2023-01-21T16:45:51.991Z,102222.00
2023-01-21T16:48:30.775Z,102216.00
2023-01-21T16:50:59.568Z,102214.00
2023-01-21T16:53:27.626Z,102213.00
2023-01-21T16:55:56.805Z,102228.00
2023-01-21T16:58:29.558Z,102218.00
2023-01-21T17:01:07.706Z,102215.00
2023-01-21T17:03:37.657Z,102217.00
2023-01-21T17:06:10.862Z,102222.00
2023-01-21T17:08:39.320Z,102214.00
2023-01-21T17:11:10.623Z,102226.00
2023-01-21T17:13:41.513Z,102232.00
2023-01-21T17:16:19.532Z,102229.00
2023-01-21T17:18:53.491Z,102219.00
2023-01-21T17:21:27.929Z,102214.00
2023-01-21T17:23:58.439Z,102206.00
2023-01-21T17:26:29.401Z,102213.00
2023-01-21T17:28:59.676Z,102205.00
2023-01-21T17:31:29.936Z,102215.00
2023-01-21T17:34:07.870Z,102202.00
2023-01-21T17:36:37.361Z,102224.00
2023-01-21T17:39:06.049Z,102223.00
2023-01-21T17:41:37.519Z,102206.00
2023-01-21T17:44:08.745Z,102218.00
2023-01-21T17:46:36.491Z,102217.00
2023-01-21T17:49:11.768Z,102212.00
2023-01-21T17:51:44.149Z,102214.00
2023-01-21T17:54:20.072Z,102218.00
2023-01-21T17:56:51.475Z,102210.00
2023-01-21T17:59:28.870Z,102220.00
2023-01-21T18:01:56.795Z,102216.00
2023-01-21T18:04:25.856Z,102219.00
2023-01-21T18:06:54.638Z,102216.00
2023-01-21T18:09:24.144Z,102212.00
2023-01-21T18:11:53.030Z,102207.00
2023-01-21T18:14:22.696Z,102218.00
2023-01-21T18:16:50.633Z,102222.00
2023-01-21T18:19:30.203Z,102217.00
2023-01-21T18:21:57.847Z,102218.00
2023-01-21T18:24:26.460Z,102219.00
2023-01-21T18:26:55.744Z,102218.00
2023-01-21T18:29:23.656Z,102225.00
2023-01-21T18:31:52.211Z,102218.00
2023-01-21T18:34:20.046Z,102215.00
2023-01-21T18:36:49.111Z,102207.00
2023-01-21T18:39:18.653Z,102212.00
2023-01-21T18:41:46.900Z,102218.00
2023-01-21T18:44:16.116Z,102212.00
2023-01-21T18:46:43.893Z,102219.00
2023-01-21T18:49:16.126Z,102203.00
2023-01-21T18:51:44.101Z,102208.00
2023-01-21T18:54:15.046Z,102206.00
2023-01-21T18:56:43.406Z,102212.00
2023-01-21T18:59:14.686Z,102206.00
2023-01-21T19:01:42.997Z,102203.00
2023-01-21T19:04:14.234Z,102206.00
2023-01-21T19:06:42.136Z,102197.00
2023-01-21T19:09:18.864Z,102188.00
2023-01-21T19:11:46.522Z,102193.00
2023-01-21T19:14:14.250Z,102196.00
2023-01-21T19:16:43.704Z,102197.00
2023-01-21T19:19:12.019Z,102196.00
2023-01-21T19:21:39.888Z,102192.00
2023-01-21T19:24:11.099Z,102194.00
2023-01-21T19:26:40.947Z,102183.00
2023-01-21T19:29:16.155Z,102186.00
2023-01-21T19:31:43.862Z,102181.00
2023-01-21T19:34:11.623Z,102178.00
2023-01-21T19:36:40.144Z,102179.00
2023-01-21T19:39:15.168Z,102184.00
2023-01-21T19:41:44.224Z,102178.00
2023-01-21T19:44:11.870Z,102184.00
2023-01-21T19:46:39.801Z,102186.00
2023-01-21T19:49:13.796Z,102194.00
2023-01-21T19:51:41.511Z,102194.00
2023-01-21T19:54:09.186Z,102179.00
2023-01-21T19:56:37.449Z,102194.00
2023-01-21T19:59:06.549Z,102206.00
2023-01-21T20:01:34.325Z,102208.00
2023-01-21T20:04:02.254Z,102193.00
2023-01-21T20:06:34.816Z,102212.00
2023-01-21T20:09:02.789Z,102224.00
2023-01-21T20:11:30.458Z,102215.00
2023-01-21T20:13:58.189Z,102230.00
2023-01-21T20:16:27.483Z,102209.00
2023-01-21T20:18:56.183Z,102206.00
2023-01-21T20:21:23.971Z,102205.00
2023-01-21T20:23:51.612Z,102194.00
2023-01-21T20:26:24.617Z,102180.00
2023-01-21T20:28:54.441Z,102156.00
2023-01-21T20:31:22.267Z,102151.00
2023-01-21T20:33:51.443Z,102156.00
2023-01-21T20:36:23.157Z,102159.00
2023-01-21T20:38:51.050Z,102171.00
2023-01-21T20:41:18.759Z,102166.00
2023-01-21T20:43:46.629Z,102184.00
2023-01-21T20:46:18.174Z,102184.00
2023-01-21T20:48:45.956Z,102181.00
2023-01-21T20:51:15.239Z,102170.00
2023-01-21T20:53:42.960Z,102189.00
2023-01-21T20:56:18.695Z,102200.00
2023-01-21T20:58:47.883Z,102203.00
2023-01-21T21:01:16.675Z,102204.00
2023-01-21T21:03:44.623Z,102195.00
2023-01-21T21:06:15.392Z,102204.00
2023-01-21T21:08:43.130Z,102194.00
2023-01-21T21:11:11.300Z,102186.00
2023-01-21T21:13:39.035Z,102170.00
2023-01-21T21:16:17.741Z,102178.00
2023-01-21T21:18:45.522Z,102172.00
2023-01-21T21:21:14.879Z,102179.00
2023-01-21T21:23:46.376Z,102182.00
2023-01-21T21:26:18.334Z,102177.00
2023-01-21T21:28:47.436Z,102176.00
2023-01-21T21:31:17.192Z,102185.00
2023-01-21T21:33:45.689Z,102180.00
2023-01-21T21:36:15.924Z,102176.00
2023-01-21T21:38:44.284Z,102170.00
2023-01-21T21:41:33.380Z,102168.00
2023-01-21T21:44:01.195Z,102164.00
2023-01-21T21:46:46.694Z,102153.00
2023-01-21T21:49:14.444Z,102154.00
2023-01-21T21:51:45.611Z,102156.00
2023-01-21T21:54:15.216Z,102150.00
2023-01-21T21:56:43.997Z,102143.00
2023-01-21T21:59:11.903Z,102147.00
2023-01-21T22:01:40.119Z,102138.00
2023-01-21T22:04:08.306Z,102131.00
2023-01-21T22:06:35.997Z,102136.00
2023-01-21T22:09:05.480Z,102138.00
2023-01-21T22:11:33.269Z,102148.00
2023-01-21T22:14:03.581Z,102151.00
2023-01-21T22:16:31.819Z,102160.00
2023-01-21T22:19:00.682Z,102160.00
2023-01-21T22:21:31.754Z,102166.00
2023-01-21T22:23:59.924Z,102154.00
2023-01-21T22:26:29.800Z,102158.00
2023-01-21T22:28:57.535Z,102170.00
2023-01-21T22:31:27.869Z,102172.00
2023-01-21T22:33:56.459Z,102171.00
2023-01-21T22:36:25.943Z,102176.00
2023-01-21T22:38:54.056Z,102176.00
2023-01-21T22:41:24.154Z,102177.00
2023-01-21T22:43:53.913Z,102183.00
2023-01-21T22:46:23.640Z,102189.00
2023-01-21T22:48:51.403Z,102178.00
2023-01-21T22:51:21.245Z,102164.00
2023-01-21T22:53:49.786Z,102164.00
2023-01-21T22:56:19.120Z,102164.00
2023-01-21T22:58:46.876Z,102152.00
2023-01-21T23:01:24.803Z,102165.00
2023-01-21T23:03:53.538Z,102163.00
2023-01-21T23:06:21.656Z,102166.00
2023-01-21T23:08:49.896Z,102163.00
2023-01-21T23:11:19.454Z,102166.00
2023-01-21T23:13:49.326Z,102155.00
2023-01-21T23:16:19.349Z,102158.00
2023-01-21T23:18:48.632Z,102154.00
2023-01-21T23:21:18.664Z,102164.00
2023-01-21T23:23:46.457Z,102158.00
2023-01-21T23:26:15.119Z,102162.00
2023-01-21T23:28:43.024Z,102155.00
2023-01-21T23:31:13.314Z,102151.00
2023-01-21T23:33:42.243Z,102152.00
2023-01-21T23:36:13.748Z,102151.00
2023-01-21T23:38:41.966Z,102144.00
2023-01-21T23:41:11.255Z,102151.00
2023-01-21T23:43:39.533Z,102148.00
2023-01-21T23:46:08.864Z,102153.00
2023-01-21T23:48:36.605Z,102154.00
2023-01-21T23:51:05.325Z,102142.00
2023-01-21T23:53:35.640Z,102139.00
2023-01-21T23:56:07.688Z,102143.00
2023-01-21T23:58:35.803Z,102140.00
